College Park, MD

5:25 PM EST on December 03, 2016 (GMT -0500)
College Park

Weather History for KCGS - March, 2014

Change the Weather History Date:

Thursday, March 6, 2014

  Actual Average Record
Temperature  
Mean Temperature 30 °F -  
Max Temperature 36 °F 52 °F 80 °F (1961)
Min Temperature 25 °F 34 °F 10 °F (2015)
Degree Days  
Heating Degree Days 34    
Moisture  
Dew Point 16 °F    
Average Humidity 54    
Maximum Humidity 68    
Minimum Humidity 46    
Precipitation  
Precipitation 0.00 in - - ()
Sea Level Pressure  
Sea Level Pressure 30.48 in    
Wind  
Wind Speed 7 mph (NE)    
Max Wind Speed 13 mph    
Max Gust Speed 17 mph    
Visibility 10 miles    
Events      
Averages and records for this station are not official NWS values.
T = Trace of Precipitation, MM = Missing Value Source: NWS Daily Summary

Daily Weather History Graph

Daily Weather History Graph

Search for Another Location

Airport or City:

Trip Planner

Search our weather history database for the weather conditions in past years. The results will help you decide how hot, cold, wet, or windy it might be!

Date:

Astronomy

Mar. 06, 2014 Rise Set
Actual Time 6:32 AM EST 6:05 PM EST
Civil Twilight 6:06 AM EST 6:32 PM EST
Nautical Twilight 5:35 AM EST 7:03 PM EST
Astronomical Twilight 5:04 AM EST 7:34 PM EST
Moon 9:42 AM EST (3/6) No Moon Set
Length of Visible Light 12h 26m
Length of Day
11h 32m
Waxing Crescent, 32% of the Moon is Illuminated
Mar 6
Waxing Crescent
Mar 8
First Quarter
Mar 16
Full
Mar 23
Last Quarter
Mar 30
New

Hourly Weather History & Observations

Time (EST) Temp. Windchill Dew Point Humidity Pressure Visibility Wind Dir Wind Speed Gust Speed Precip Events Conditions
12:15 AM 32.9 °F 24.1 °F 14.2 °F 46% 30.42 in 10.0 mi North 11.5 mph 17.3 mph N/A   Overcast
12:35 AM 32.2 °F 26.7 °F 13.6 °F 46% 30.42 in 10.0 mi NE 5.8 mph - N/A   Overcast
12:55 AM 32.0 °F 24.2 °F 13.6 °F 47% 30.43 in 10.0 mi North 9.2 mph - N/A   Overcast
1:15 AM 31.5 °F 21.8 °F 12.9 °F 46% 30.44 in 10.0 mi NNE 12.7 mph 16.1 mph N/A   Overcast
1:35 AM 30.9 °F 23.5 °F 12.6 °F 47% 30.44 in 10.0 mi NNE 8.1 mph - N/A   Overcast
1:55 AM 30.7 °F 24.9 °F 12.6 °F 47% 30.45 in 10.0 mi NNE 5.8 mph - N/A   Overcast
2:15 AM 30.2 °F 21.9 °F 12.6 °F 48% 30.45 in 10.0 mi NNE 9.2 mph - N/A   Overcast
2:30 AM 29.7 °F 20.1 °F 12.4 °F 49% 30.44 in 10.0 mi NNE 11.5 mph - N/A   Mostly Cloudy
2:55 AM 28.6 °F 19.9 °F 11.8 °F 50% 30.46 in 10.0 mi NNE 9.2 mph - N/A   Clear
3:15 AM 27.9 °F 21.5 °F 11.7 °F 51% 30.46 in 10.0 mi North 5.8 mph - N/A   Clear
3:35 AM 27.5 °F 18.6 °F 11.5 °F 51% 30.46 in 10.0 mi North 9.2 mph - N/A   Clear
3:55 AM 27.1 °F 17.5 °F 11.3 °F 51% 30.46 in 10.0 mi NNE 10.4 mph - N/A   Clear
4:15 AM 26.6 °F 19.1 °F 11.5 °F 53% 30.46 in 10.0 mi NNE 6.9 mph - N/A   Clear
4:35 AM 26.4 °F 17.3 °F 11.1 °F 53% 30.48 in 10.0 mi NNE 9.2 mph - N/A   Clear
4:55 AM 26.1 °F 17.6 °F 10.9 °F 53% 30.48 in 10.0 mi NE 8.1 mph - N/A   Clear
5:15 AM 25.7 °F 19.0 °F 11.3 °F 55% 30.48 in 10.0 mi NNE 5.8 mph - N/A   Clear
5:35 AM 25.5 °F 16.9 °F 11.3 °F 55% 30.49 in 10.0 mi North 8.1 mph - N/A   Clear
5:55 AM 25.3 °F 19.7 °F 11.8 °F 57% 30.50 in 10.0 mi NNE 4.6 mph - N/A   Clear
6:20 AM 25.2 °F 18.3 °F 11.8 °F 57% 30.51 in 10.0 mi NNE 5.8 mph - N/A   Clear
6:40 AM 25.2 °F 16.5 °F 11.8 °F 57% 30.51 in 10.0 mi NNE 8.1 mph - N/A   Scattered Clouds
7:00 AM 25.5 °F 19.9 °F 12.2 °F 57% 30.53 in 10.0 mi NNE 4.6 mph - N/A   Mostly Cloudy
7:20 AM 25.7 °F 20.1 °F 12.6 °F 58% 30.54 in 10.0 mi NNE 4.6 mph - N/A   Overcast
7:40 AM 26.1 °F 21.9 °F 13.1 °F 58% 30.55 in 10.0 mi North 3.5 mph - N/A   Overcast
8:00 AM 26.4 °F 18.9 °F 13.1 °F 57% 30.56 in 10.0 mi NNE 6.9 mph - N/A   Overcast
8:20 AM 26.4 °F 20.9 °F 12.7 °F 56% 30.58 in 10.0 mi NNE 4.6 mph - N/A   Overcast
8:40 AM 27.3 °F 19.9 °F 12.9 °F 55% 30.60 in 10.0 mi NE 6.9 mph - N/A   Overcast
9:00 AM 27.9 °F 21.5 °F 13.6 °F 55% 30.58 in 10.0 mi ENE 5.8 mph - N/A   Mostly Cloudy
9:20 AM 28.2 °F 20.2 °F 14.0 °F 55% 30.58 in 10.0 mi NE 8.1 mph - N/A   Mostly Cloudy
9:40 AM 29.1 °F 22.1 °F 14.2 °F 54% 30.57 in 10.0 mi NNE 6.9 mph - N/A   Clear
10:00 AM 29.5 °F 23.4 °F 14.9 °F 55% 30.55 in 10.0 mi NE 5.8 mph 16.1 mph N/A   Clear
10:20 AM 30.7 °F 24.9 °F 15.6 °F 54% 30.56 in 10.0 mi ENE 5.8 mph - N/A   Scattered Clouds
10:35 AM 29.5 °F 21.8 °F 15.6 °F 56% 30.57 in 10.0 mi ENE 8.1 mph - N/A   Mostly Cloudy
11:00 AM 30.4 °F 23.6 °F 16.5 °F 56% 30.56 in 10.0 mi NE 6.9 mph - N/A   Overcast
11:20 AM 31.3 °F 23.9 °F 17.4 °F 57% 30.56 in 10.0 mi NE 8.1 mph - N/A   Overcast
11:40 AM 31.5 °F 24.2 °F 17.6 °F 57% 30.55 in 10.0 mi NE 8.1 mph - N/A   Overcast
12:00 PM 31.8 °F 27.3 °F 17.6 °F 56% 30.56 in 10.0 mi ENE 4.6 mph - N/A   Mostly Cloudy
12:20 PM 34.0 °F 29.8 °F 19.0 °F 54% 30.54 in 10.0 mi East 4.6 mph - N/A   Mostly Cloudy
12:40 PM 32.7 °F 29.6 °F 18.1 °F 55% 30.53 in 10.0 mi NE 3.5 mph - N/A   Mostly Cloudy
1:00 PM 34.0 °F 31.0 °F 18.5 °F 53% 30.52 in 10.0 mi East 3.5 mph - N/A   Scattered Clouds
1:20 PM 34.7 °F 27.5 °F 19.0 °F 53% 30.50 in 10.0 mi ESE 9.2 mph - N/A   Clear
1:40 PM 34.7 °F 27.5 °F 18.5 °F 52% 30.48 in 10.0 mi East 9.2 mph - N/A   Clear
2:00 PM 35.2 °F 28.1 °F 18.7 °F 51% 30.47 in 10.0 mi NNE 9.2 mph - N/A   Clear
2:20 PM 34.9 °F 30.8 °F 18.5 °F 51% 30.47 in 10.0 mi NNE 4.6 mph - N/A   Clear
2:40 PM 36.0 °F 32.1 °F 18.5 °F 49% 30.47 in 10.0 mi East 4.6 mph - N/A   Clear
2:55 PM 35.4 °F 29.0 °F 18.1 °F 49% 30.46 in 10.0 mi East 8.1 mph - N/A   Clear
3:20 PM 35.2 °F 29.5 °F 18.1 °F 50% 30.48 in 10.0 mi East 6.9 mph - N/A   Clear
3:40 PM 35.2 °F 28.1 °F 18.3 °F 50% 30.48 in 10.0 mi East 9.2 mph - N/A   Clear
4:00 PM 34.3 °F 28.4 °F 18.0 °F 51% 30.47 in 10.0 mi ENE 6.9 mph - N/A   Clear
4:20 PM 34.0 °F 31.0 °F 17.6 °F 51% 30.47 in 10.0 mi ENE 3.5 mph - N/A   Clear
4:40 PM 33.8 °F 30.8 °F 17.6 °F 52% 30.47 in 10.0 mi East 3.5 mph - N/A   Clear
5:00 PM 33.6 °F 28.4 °F 17.8 °F 52% 30.47 in 10.0 mi ENE 5.8 mph - N/A   Clear
5:20 PM 33.1 °F 27.7 °F 17.8 °F 53% 30.46 in 10.0 mi East 5.8 mph - N/A   Clear
5:40 PM 32.9 °F 27.5 °F 17.6 °F 53% 30.46 in 10.0 mi ENE 5.8 mph - N/A   Clear
6:00 PM 32.4 °F 26.9 °F 17.6 °F 55% 30.46 in 10.0 mi ENE 5.8 mph - N/A   Clear
6:20 PM 32.2 °F 26.7 °F 17.6 °F 55% 30.46 in 10.0 mi ENE 5.8 mph - N/A   Clear
6:40 PM 32.2 °F 28.9 °F 17.6 °F 55% 30.46 in 10.0 mi ENE 3.5 mph - N/A   Clear
7:00 PM 32.0 °F 27.5 °F 16.9 °F 54% 30.46 in 10.0 mi East 4.6 mph - N/A   Clear
7:20 PM 32.0 °F 25.6 °F 15.6 °F 51% 30.46 in 10.0 mi ENE 6.9 mph - N/A   Clear
7:40 PM 32.0 °F 27.5 °F 15.4 °F 51% 30.46 in 10.0 mi ENE 4.6 mph - N/A   Clear
8:00 PM 32.0 °F 26.4 °F 15.8 °F 51% 30.46 in 10.0 mi ENE 5.8 mph - N/A   Clear
8:20 PM 32.2 °F 27.7 °F 16.7 °F 53% 30.44 in 10.0 mi East 4.6 mph - N/A   Mostly Cloudy
8:40 PM 32.0 °F 28.7 °F 17.6 °F 55% 30.43 in 10.0 mi ENE 3.5 mph - N/A   Overcast
9:00 PM 32.2 °F 26.7 °F 18.5 °F 57% 30.43 in 10.0 mi ENE 5.8 mph - N/A   Overcast
9:20 PM 32.4 °F 26.0 °F 19.6 °F 59% 30.43 in 10.0 mi East 6.9 mph - N/A   Overcast
9:40 PM 32.4 °F 27.9 °F 20.5 °F 62% 30.44 in 10.0 mi East 4.6 mph - N/A   Overcast
10:00 PM 32.2 °F 26.7 °F 21.6 °F 65% 30.44 in 10.0 mi East 5.8 mph - N/A   Overcast
10:20 PM 32.2 °F 25.8 °F 21.7 °F 65% 30.43 in 10.0 mi ENE 6.9 mph - N/A   Overcast
10:40 PM 32.2 °F 27.7 °F 22.1 °F 66% 30.43 in 10.0 mi East 4.6 mph - N/A   Overcast
11:00 PM 32.0 °F 25.6 °F 22.5 °F 68% 30.41 in 10.0 mi ENE 6.9 mph - N/A   Overcast
11:20 PM 32.0 °F 27.5 °F 22.6 °F 68% 30.40 in 10.0 mi NE 4.6 mph - N/A   Overcast
11:40 PM 32.0 °F 27.5 °F 22.6 °F 68% 30.39 in 10.0 mi ENE 4.6 mph - N/A   Overcast